Time,TemperatureF,DewpointF,PressureIn,WindDirection,WindDirectionDegrees,WindSpeedMPH,WindSpeedGustMPH,Humidity,HourlyPrecipIn,Conditions,Clouds,dailyrainin,SoftwareType,DateUTC
2013-01-25 00:05:00,51.3,49.1,30.25,West,266,0.0,0.0,92,0.00,CLR,,0.00,WeatherDisplay:10.37,2013-01-25 05:05:00,
2013-01-25 00:10:00,51.1,48.9,30.25,West,266,0.0,0.0,92,0.00,CLR,,0.00,WeatherDisplay:10.37,2013-01-25 05:10:00,
2013-01-25 00:15:00,50.9,48.7,30.24,West,266,0.0,0.0,92,0.00,CLR,,0.00,WeatherDisplay:10.37,2013-01-25 05:15:00,
2013-01-25 00:20:00,50.9,49.0,30.24,West,266,0.0,0.0,93,0.00,CLR,,0.00,WeatherDisplay:10.37,2013-01-25 05:20:00,
2013-01-25 00:25:00,50.8,48.8,30.24,West,266,0.0,0.0,93,0.00,CLR,,0.00,WeatherDisplay:10.37,2013-01-25 05:25:00,
2013-01-25 00:30:00,50.8,48.8,30.24,West,266,0.0,0.0,93,0.00,CLR,,0.00,WeatherDisplay:10.37,2013-01-25 05:30:00,
2013-01-25 00:35:00,50.6,48.7,30.24,West,266,0.0,0.0,93,0.00,CLR,,0.00,WeatherDisplay:10.37,2013-01-25 05:35:00,
2013-01-25 00:40:00,50.5,48.5,30.24,West,266,0.0,0.0,93,0.00,CLR,,0.00,WeatherDisplay:10.37,2013-01-25 05:40:00,
2013-01-25 00:45:00,50.3,48.4,30.25,West,266,0.0,0.0,93,0.00,CLR,,0.00,WeatherDisplay:10.37,2013-01-25 05:45:00,
2013-01-25 00:50:00,50.3,48.6,30.24,West,266,0.0,0.0,94,0.00,CLR,,0.00,WeatherDisplay:10.37,2013-01-25 05:50:00,
2013-01-25 00:55:00,50.6,49.2,30.24,West,266,0.0,1.0,95,0.00,CLR,,0.00,WeatherDisplay:10.37,2013-01-25 05:55:00,
2013-01-25 01:00:00,50.7,49.3,30.24,West,266,0.0,0.0,95,0.00,CLR,,0.00,WeatherDisplay:10.37,2013-01-25 06:00:00,
2013-01-25 01:05:00,50.8,49.4,30.25,West,266,0.0,0.0,95,0.00,CLR,,0.00,WeatherDisplay:10.37,2013-01-25 06:05:00,
2013-01-25 01:10:00,50.6,48.9,30.25,West,266,0.0,0.0,94,0.00,CLR,,0.00,WeatherDisplay:10.37,2013-01-25 06:10:00,
2013-01-25 01:15:00,50.6,49.2,30.25,West,266,0.0,0.0,95,0.00,CLR,,0.00,WeatherDisplay:10.37,2013-01-25 06:15:00,
2013-01-25 01:20:00,50.5,48.8,30.25,West,266,0.0,0.0,94,0.00,CLR,,0.00,WeatherDisplay:10.37,2013-01-25 06:20:00,
2013-01-25 01:25:00,50.3,48.7,30.25,West,266,0.0,0.0,94,0.00,CLR,,0.00,WeatherDisplay:10.37,2013-01-25 06:25:00,
2013-01-25 01:30:00,50.1,48.5,30.25,West,266,0.0,0.0,94,0.00,CLR,,0.00,WeatherDisplay:10.37,2013-01-25 06:30:00,
2013-01-25 01:35:00,49.9,48.2,30.25,West,266,0.0,0.0,94,0.00,CLR,,0.00,WeatherDisplay:10.37,2013-01-25 06:35:00,
2013-01-25 01:40:00,49.7,48.0,30.25,West,266,0.0,0.0,94,0.00,CLR,,0.00,WeatherDisplay:10.37,2013-01-25 06:40:00,
2013-01-25 01:45:00,49.5,47.8,30.25,West,266,0.0,0.0,94,0.00,CLR,,0.00,WeatherDisplay:10.37,2013-01-25 06:45:00,
2013-01-25 01:50:00,49.4,47.7,30.25,West,266,0.0,0.0,94,0.00,CLR,,0.00,WeatherDisplay:10.37,2013-01-25 06:50:00,
2013-01-25 01:55:00,49.2,47.5,30.25,West,266,0.0,0.0,94,0.00,CLR,,0.00,WeatherDisplay:10.37,2013-01-25 06:55:00,
2013-01-25 02:00:00,49.0,47.3,30.25,West,266,0.0,0.0,94,0.00,CLR,,0.00,WeatherDisplay:10.37,2013-01-25 07:00:00,
2013-01-25 02:05:00,48.8,47.2,30.25,West,266,0.0,0.0,94,0.00,CLR,,0.00,WeatherDisplay:10.37,2013-01-25 07:05:00,
2013-01-25 02:10:00,48.7,47.1,30.24,West,266,0.0,0.0,94,0.00,CLR,,0.00,WeatherDisplay:10.37,2013-01-25 07:10:00,
2013-01-25 02:15:00,48.6,47.0,30.25,West,266,0.0,0.0,94,0.00,CLR,,0.00,WeatherDisplay:10.37,2013-01-25 07:15:00,
2013-01-25 02:20:00,48.6,47.2,30.24,West,266,0.0,0.0,95,0.00,CLR,,0.00,WeatherDisplay:10.37,2013-01-25 07:20:00,
2013-01-25 02:25:00,48.4,46.8,30.24,West,266,0.0,0.0,94,0.00,CLR,,0.00,WeatherDisplay:10.37,2013-01-25 07:25:00,
2013-01-25 02:30:00,48.3,46.9,30.24,West,266,0.0,0.0,95,0.00,CLR,,0.00,WeatherDisplay:10.37,2013-01-25 07:30:00,
2013-01-25 02:35:00,48.3,46.9,30.24,West,266,0.0,0.0,95,0.00,CLR,,0.00,WeatherDisplay:10.37,2013-01-25 07:35:00,
2013-01-25 02:40:00,48.1,46.7,30.24,West,266,0.0,0.0,95,0.00,CLR,,0.00,WeatherDisplay:10.37,2013-01-25 07:40:00,
2013-01-25 02:45:00,47.9,46.3,30.24,West,266,0.0,0.0,94,0.00,CLR,,0.00,WeatherDisplay:10.37,2013-01-25 07:45:00,
2013-01-25 02:55:00,47.7,46.3,30.23,West,266,0.0,0.0,95,0.00,CLR,,0.00,WeatherDisplay:10.37,2013-01-25 07:55:00,
2013-01-25 03:00:00,47.8,46.4,30.23,West,266,0.0,0.0,95,0.00,CLR,,0.00,WeatherDisplay:10.37,2013-01-25 08:00:00,
2013-01-25 03:05:00,47.8,46.4,30.23,West,266,0.0,0.0,95,0.00,CLR,,0.00,WeatherDisplay:10.37,2013-01-25 08:05:00,
2013-01-25 03:10:00,47.7,46.3,30.23,West,266,0.0,0.0,95,0.00,CLR,,0.00,WeatherDisplay:10.37,2013-01-25 08:10:00,
2013-01-25 03:15:00,47.7,46.3,30.23,West,266,0.0,0.0,95,0.00,CLR,,0.00,WeatherDisplay:10.37,2013-01-25 08:15:00,
2013-01-25 03:20:00,47.6,46.3,30.22,West,266,0.0,0.0,95,0.00,CLR,,0.00,WeatherDisplay:10.37,2013-01-25 08:20:00,
2013-01-25 03:25:00,47.6,46.2,30.23,West,266,0.0,0.0,95,0.00,CLR,,0.00,WeatherDisplay:10.37,2013-01-25 08:25:00,
2013-01-25 03:30:00,47.6,46.5,30.23,West,266,0.0,0.0,96,0.00,CLR,,0.00,WeatherDisplay:10.37,2013-01-25 08:30:00,
2013-01-25 03:35:00,47.5,46.1,30.23,West,266,0.0,0.0,95,0.00,CLR,,0.00,WeatherDisplay:10.37,2013-01-25 08:35:00,
2013-01-25 03:45:00,47.4,46.3,30.23,West,266,0.0,0.0,96,0.00,CLR,,0.00,WeatherDisplay:10.37,2013-01-25 08:45:00,
2013-01-25 03:50:00,47.3,46.2,30.23,West,266,0.0,0.0,96,0.00,CLR,,0.00,WeatherDisplay:10.37,2013-01-25 08:50:00,
2013-01-25 03:55:00,47.2,46.1,30.23,West,266,0.0,0.0,96,0.00,CLR,,0.00,WeatherDisplay:10.37,2013-01-25 08:55:00,
2013-01-25 04:00:00,47.0,45.6,30.22,West,266,0.0,0.0,95,0.00,CLR,,0.00,WeatherDisplay:10.37,2013-01-25 09:00:00,
2013-01-25 04:05:00,47.0,45.9,30.22,West,266,0.0,0.0,96,0.00,CLR,,0.00,WeatherDisplay:10.37,2013-01-25 09:05:00,
2013-01-25 04:10:00,47.0,45.9,30.23,West,266,0.0,0.0,96,0.00,CLR,,0.00,WeatherDisplay:10.37,2013-01-25 09:10:00,
2013-01-25 04:15:00,46.9,45.8,30.22,West,266,0.0,0.0,96,0.00,CLR,,0.00,WeatherDisplay:10.37,2013-01-25 09:15:00,
2013-01-25 04:20:00,46.8,45.7,30.23,West,266,0.0,0.0,96,0.00,CLR,,0.00,WeatherDisplay:10.37,2013-01-25 09:20:00,
2013-01-25 04:25:00,46.8,45.7,30.22,West,266,0.0,0.0,96,0.00,CLR,,0.00,WeatherDisplay:10.37,2013-01-25 09:25:00,
2013-01-25 04:30:00,46.7,45.6,30.22,West,266,0.0,0.0,96,0.00,CLR,,0.00,WeatherDisplay:10.37,2013-01-25 09:30:00,
2013-01-25 04:35:00,46.7,45.6,30.22,West,266,0.0,0.0,96,0.00,CLR,,0.00,WeatherDisplay:10.37,2013-01-25 09:35:00,
2013-01-25 04:40:00,46.5,45.4,30.23,West,266,0.0,0.0,96,0.00,CLR,,0.00,WeatherDisplay:10.37,2013-01-25 09:40:00,
2013-01-25 04:45:00,46.4,45.3,30.23,West,266,0.0,0.0,96,0.00,CLR,,0.00,WeatherDisplay:10.37,2013-01-25 09:45:00,
2013-01-25 04:50:00,46.3,45.2,30.23,West,266,0.0,0.0,96,0.00,CLR,,0.00,WeatherDisplay:10.37,2013-01-25 09:50:00,
2013-01-25 04:55:00,46.4,45.3,30.23,West,266,0.0,0.0,96,0.00,CLR,,0.00,WeatherDisplay:10.37,2013-01-25 09:55:00,
2013-01-25 05:00:00,46.3,45.2,30.23,West,266,0.0,0.0,96,0.00,CLR,,0.00,WeatherDisplay:10.37,2013-01-25 10:00:00,
2013-01-25 05:05:00,46.1,45.0,30.23,West,266,0.0,0.0,96,0.00,CLR,,0.00,WeatherDisplay:10.37,2013-01-25 10:05:00,
2013-01-25 05:10:00,46.0,45.0,30.23,West,266,0.0,0.0,96,0.00,CLR,,0.00,WeatherDisplay:10.37,2013-01-25 10:10:00,
2013-01-25 05:15:00,45.9,44.8,30.23,West,266,0.0,0.0,96,0.00,CLR,,0.00,WeatherDisplay:10.37,2013-01-25 10:15:00,
2013-01-25 05:20:00,45.8,44.7,30.23,West,266,0.0,0.0,96,0.00,CLR,,0.00,WeatherDisplay:10.37,2013-01-25 10:20:00,
2013-01-25 05:25:00,45.8,44.7,30.24,West,266,0.0,0.0,96,0.00,CLR,,0.00,WeatherDisplay:10.37,2013-01-25 10:25:00,
2013-01-25 05:30:00,46.0,44.9,30.24,West,266,0.0,0.0,96,0.00,CLR,,0.00,WeatherDisplay:10.37,2013-01-25 10:30:00,
2013-01-25 05:35:00,46.2,45.1,30.24,West,266,0.0,0.0,96,0.00,CLR,,0.00,WeatherDisplay:10.37,2013-01-25 10:35:00,
2013-01-25 05:40:00,46.4,45.6,30.24,West,266,0.0,0.0,97,0.00,CLR,,0.00,WeatherDisplay:10.37,2013-01-25 10:40:00,
2013-01-25 05:45:00,46.5,45.7,30.24,West,266,0.0,0.0,97,0.00,CLR,,0.00,WeatherDisplay:10.37,2013-01-25 10:45:00,
2013-01-25 05:50:00,46.6,45.8,30.24,West,266,0.0,0.0,97,0.00,CLR,,0.00,WeatherDisplay:10.37,2013-01-25 10:50:00,
2013-01-25 05:55:00,46.6,45.5,30.24,West,266,0.0,0.0,96,0.00,CLR,,0.00,WeatherDisplay:10.37,2013-01-25 10:55:00,
2013-01-25 06:00:00,46.6,45.5,30.25,West,266,0.0,0.0,96,0.00,CLR,,0.00,WeatherDisplay:10.37,2013-01-25 11:00:00,
2013-01-25 06:05:00,46.6,45.5,30.25,West,266,0.0,0.0,96,0.00,CLR,,0.00,WeatherDisplay:10.37,2013-01-25 11:05:00,
2013-01-25 06:10:00,46.7,45.6,30.25,West,266,0.0,0.0,96,0.00,CLR,,0.00,WeatherDisplay:10.37,2013-01-25 11:10:00,
2013-01-25 06:15:00,46.6,45.6,30.25,West,266,0.0,0.0,96,0.00,CLR,,0.00,WeatherDisplay:10.37,2013-01-25 11:15:00,
2013-01-25 06:20:00,46.5,45.4,30.25,West,266,0.0,0.0,96,0.00,CLR,,0.00,WeatherDisplay:10.37,2013-01-25 11:20:00,
2013-01-25 06:25:00,46.5,45.4,30.25,West,266,0.0,0.0,96,0.00,CLR,,0.00,WeatherDisplay:10.37,2013-01-25 11:25:00,
2013-01-25 06:30:00,46.4,45.3,30.25,West,266,0.0,1.0,96,0.00,CLR,,0.00,WeatherDisplay:10.37,2013-01-25 11:30:00,
2013-01-25 06:35:00,46.3,45.2,30.26,West,266,0.0,0.0,96,0.00,CLR,,0.00,WeatherDisplay:10.37,2013-01-25 11:35:00,
2013-01-25 06:40:00,46.4,45.3,30.25,West,266,0.0,0.0,96,0.00,CLR,,0.00,WeatherDisplay:10.37,2013-01-25 11:40:00,
2013-01-25 06:45:00,46.5,45.7,30.26,West,266,0.0,0.0,97,0.00,CLR,,0.00,WeatherDisplay:10.37,2013-01-25 11:45:00,
2013-01-25 06:50:00,46.6,45.8,30.26,West,266,0.0,0.0,97,0.00,CLR,,0.00,WeatherDisplay:10.37,2013-01-25 11:50:00,
2013-01-25 06:55:00,46.7,45.9,30.26,West,266,0.0,0.0,97,0.00,CLR,,0.00,WeatherDisplay:10.37,2013-01-25 11:55:00,
2013-01-25 07:00:00,46.8,46.0,30.26,West,266,0.0,0.0,97,0.00,CLR,,0.00,WeatherDisplay:10.37,2013-01-25 12:00:00,
2013-01-25 07:05:00,46.8,46.0,30.26,West,266,0.0,0.0,97,0.00,CLR,,0.00,WeatherDisplay:10.37,2013-01-25 12:05:00,
2013-01-25 07:10:00,46.7,45.9,30.26,West,266,0.0,0.0,97,0.00,CLR,,0.00,WeatherDisplay:10.37,2013-01-25 12:10:00,
2013-01-25 07:15:00,46.6,45.8,30.26,West,266,0.0,0.0,97,0.00,CLR,,0.00,WeatherDisplay:10.37,2013-01-25 12:15:00,
2013-01-25 07:25:00,46.4,45.3,30.26,West,266,0.0,0.0,96,0.00,CLR,,0.00,WeatherDisplay:10.37,2013-01-25 12:25:00,
2013-01-25 07:30:00,46.4,45.3,30.26,West,266,0.0,0.0,96,0.00,CLR,,0.00,WeatherDisplay:10.37,2013-01-25 12:30:00,
2013-01-25 07:35:00,46.4,45.3,30.26,West,266,0.0,0.0,96,0.00,CLR,,0.00,WeatherDisplay:10.37,2013-01-25 12:35:00,
2013-01-25 07:40:00,46.4,45.3,30.26,West,266,0.0,0.0,96,0.00,CLR,,0.00,WeatherDisplay:10.37,2013-01-25 12:40:00,
2013-01-25 07:45:00,46.3,45.2,30.26,West,266,0.0,0.0,96,0.00,CLR,,0.00,WeatherDisplay:10.37,2013-01-25 12:45:00,
2013-01-25 07:50:00,46.4,45.6,30.26,West,266,0.0,0.0,97,0.00,CLR,,0.00,WeatherDisplay:10.37,2013-01-25 12:50:00,
2013-01-25 07:55:00,46.7,45.9,30.26,West,266,0.0,0.0,97,0.00,CLR,,0.00,WeatherDisplay:10.37,2013-01-25 12:55:00,
2013-01-25 08:00:00,47.0,46.2,30.26,West,266,0.0,0.0,97,0.00,CLR,,0.00,WeatherDisplay:10.37,2013-01-25 13:00:00,
2013-01-25 08:05:00,47.4,46.6,30.26,West,266,0.0,0.0,97,0.00,CLR,,0.00,WeatherDisplay:10.37,2013-01-25 13:05:00,
2013-01-25 08:10:00,47.5,46.7,30.27,West,266,0.0,0.0,97,0.00,CLR,,0.00,WeatherDisplay:10.37,2013-01-25 13:10:00,
2013-01-25 08:15:00,47.7,46.9,30.27,West,266,0.0,0.0,97,0.00,CLR,,0.00,WeatherDisplay:10.37,2013-01-25 13:15:00,
2013-01-25 08:20:00,48.8,48.0,30.26,West,266,0.0,1.0,97,0.00,CLR,,0.00,WeatherDisplay:10.37,2013-01-25 13:20:00,
2013-01-25 08:25:00,49.3,48.8,30.27,West,266,0.0,0.0,98,0.00,CLR,,0.00,WeatherDisplay:10.37,2013-01-25 13:25:00,
2013-01-25 08:30:00,49.7,49.2,30.27,West,266,0.0,0.0,98,0.00,CLR,,0.00,WeatherDisplay:10.37,2013-01-25 13:30:00,
2013-01-25 08:35:00,50.6,50.0,30.27,West,266,0.0,0.0,98,0.00,CLR,,0.00,WeatherDisplay:10.37,2013-01-25 13:35:00,
2013-01-25 08:40:00,51.4,50.9,30.27,West,266,0.0,0.0,98,0.00,CLR,,0.00,WeatherDisplay:10.37,2013-01-25 13:40:00,
2013-01-25 08:45:00,52.3,51.8,30.27,West,266,0.0,1.0,98,0.00,CLR,,0.00,WeatherDisplay:10.37,2013-01-25 13:45:00,
2013-01-25 08:50:00,53.1,52.5,30.27,West,266,0.0,1.0,98,0.00,CLR,,0.00,WeatherDisplay:10.37,2013-01-25 13:50:00,
2013-01-25 08:55:00,53.6,53.0,30.27,West,266,0.0,1.0,98,0.00,CLR,,0.00,WeatherDisplay:10.37,2013-01-25 13:55:00,
2013-01-25 09:00:00,53.9,53.3,30.27,West,266,0.0,4.0,98,0.00,CLR,,0.00,WeatherDisplay:10.37,2013-01-25 14:00:00,
2013-01-25 09:05:00,54.2,53.7,30.28,WNW,284,1.0,4.0,98,0.00,CLR,,0.00,WeatherDisplay:10.37,2013-01-25 14:05:00,
2013-01-25 09:10:00,54.8,54.2,30.28,WNW,301,0.0,3.0,98,0.00,CLR,,0.00,WeatherDisplay:10.37,2013-01-25 14:10:00,
2013-01-25 09:15:00,55.3,54.8,30.28,NW,310,0.0,2.0,98,0.00,CLR,,0.00,WeatherDisplay:10.37,2013-01-25 14:15:00,
2013-01-25 09:20:00,55.9,55.3,30.28,NW,311,0.0,2.0,98,0.00,CLR,,0.00,WeatherDisplay:10.37,2013-01-25 14:20:00,
2013-01-25 09:25:00,56.4,55.8,30.28,NW,311,0.0,1.0,98,0.00,CLR,,0.00,WeatherDisplay:10.37,2013-01-25 14:25:00,
2013-01-25 09:30:00,57.0,56.2,30.28,NW,315,0.0,3.0,97,0.00,CLR,,0.00,WeatherDisplay:10.37,2013-01-25 14:30:00,
2013-01-25 09:35:00,57.5,56.1,30.28,NW,317,0.0,2.0,95,0.00,CLR,,0.00,WeatherDisplay:10.37,2013-01-25 14:35:00,
2013-01-25 09:40:00,58.0,56.0,30.28,NW,317,0.0,2.0,93,0.00,CLR,,0.00,WeatherDisplay:10.37,2013-01-25 14:40:00,
2013-01-25 09:45:00,58.6,56.3,30.28,NW,317,0.0,2.0,92,0.00,CLR,,0.00,WeatherDisplay:10.37,2013-01-25 14:45:00,
2013-01-25 09:50:00,59.3,56.9,30.28,NW,317,0.0,0.0,92,0.00,CLR,,0.00,WeatherDisplay:10.37,2013-01-25 14:50:00,
2013-01-25 09:55:00,60.0,57.0,30.28,NW,317,0.0,0.0,90,0.00,CLR,,0.00,WeatherDisplay:10.37,2013-01-25 14:55:00,
2013-01-25 10:00:00,60.6,57.0,30.28,NW,317,0.0,1.0,88,0.00,CLR,,0.00,WeatherDisplay:10.37,2013-01-25 15:00:00,
2013-01-25 10:10:00,62.3,57.8,30.28,NW,317,0.0,0.0,85,0.00,CLR,,0.00,WeatherDisplay:10.37,2013-01-25 15:10:00,
2013-01-25 10:15:00,62.8,57.6,30.28,NW,317,0.0,0.0,83,0.00,CLR,,0.00,WeatherDisplay:10.37,2013-01-25 15:15:00,
2013-01-25 10:20:00,63.7,58.4,30.28,NW,317,0.0,1.0,83,0.00,CLR,,0.00,WeatherDisplay:10.37,2013-01-25 15:20:00,
2013-01-25 10:25:00,64.5,58.2,30.28,NW,317,0.0,1.0,80,0.00,CLR,,0.00,WeatherDisplay:10.37,2013-01-25 15:25:00,
2013-01-25 10:30:00,65.3,58.2,30.28,NW,317,0.0,1.0,78,0.00,CLR,,0.00,WeatherDisplay:10.37,2013-01-25 15:30:00,
2013-01-25 10:35:00,66.0,58.2,30.28,NW,317,0.0,1.0,76,0.00,CLR,,0.00,WeatherDisplay:10.37,2013-01-25 15:35:00,
2013-01-25 10:40:00,66.8,58.6,30.28,NW,317,0.0,0.0,75,0.00,CLR,,0.00,WeatherDisplay:10.37,2013-01-25 15:40:00,
2013-01-25 10:45:00,67.6,59.0,30.28,NW,317,0.0,1.0,74,0.00,CLR,,0.00,WeatherDisplay:10.37,2013-01-25 15:45:00,
2013-01-25 10:50:00,68.2,58.9,30.28,NW,317,0.0,0.0,72,0.00,CLR,,0.00,WeatherDisplay:10.37,2013-01-25 15:50:00,
2013-01-25 10:55:00,68.8,58.6,30.28,NW,317,0.0,1.0,70,0.00,CLR,,0.00,WeatherDisplay:10.37,2013-01-25 15:55:00,
2013-01-25 11:05:00,70.0,58.9,30.28,NW,307,0.0,1.0,68,0.00,CLR,,0.00,WeatherDisplay:10.37,2013-01-25 16:05:00,
2013-01-25 11:10:00,70.5,57.3,30.27,NW,309,0.0,2.0,63,0.00,CLR,,0.00,WeatherDisplay:10.37,2013-01-25 16:10:00,
2013-01-25 11:15:00,70.6,57.4,30.27,NW,309,0.0,3.0,63,0.00,CLR,,0.00,WeatherDisplay:10.37,2013-01-25 16:15:00,
2013-01-25 11:20:00,70.9,55.9,30.27,NW,314,0.0,1.0,59,0.00,CLR,,0.00,WeatherDisplay:10.37,2013-01-25 16:20:00,
2013-01-25 11:25:00,71.1,56.5,30.27,NW,316,1.0,3.0,60,0.00,CLR,,0.00,WeatherDisplay:10.37,2013-01-25 16:25:00,
2013-01-25 11:30:00,70.9,56.8,30.27,NW,315,0.0,1.0,61,0.00,CLR,,0.00,WeatherDisplay:10.37,2013-01-25 16:30:00,
2013-01-25 11:35:00,71.1,57.0,30.26,NW,314,0.0,1.0,61,0.00,CLR,,0.00,WeatherDisplay:10.37,2013-01-25 16:35:00,
2013-01-25 11:40:00,71.3,56.7,30.26,NW,317,0.0,1.0,60,0.00,CLR,,0.00,WeatherDisplay:10.37,2013-01-25 16:40:00,
2013-01-25 11:45:00,71.5,56.9,30.26,NNE,18,0.0,3.0,60,0.00,CLR,,0.00,WeatherDisplay:10.37,2013-01-25 16:45:00,
2013-01-25 11:50:00,72.0,57.4,30.25,ENE,66,0.0,2.0,60,0.00,CLR,,0.00,WeatherDisplay:10.37,2013-01-25 16:50:00,
2013-01-25 11:55:00,72.4,55.9,30.25,ENE,66,1.0,3.0,56,0.00,CLR,,0.00,WeatherDisplay:10.37,2013-01-25 16:55:00,
2013-01-25 12:00:00,72.8,55.7,30.25,ENE,66,1.0,4.0,55,0.00,CLR,,0.00,WeatherDisplay:10.37,2013-01-25 17:00:00,
2013-01-25 12:05:00,73.2,55.5,30.24,ENE,68,0.0,3.0,54,0.00,CLR,,0.00,WeatherDisplay:10.37,2013-01-25 17:05:00,
2013-01-25 12:10:00,73.1,56.0,30.24,ENE,71,0.0,0.0,55,0.00,CLR,,0.00,WeatherDisplay:10.37,2013-01-25 17:10:00,
2013-01-25 12:15:00,73.6,55.4,30.24,ENE,69,0.0,3.0,53,0.00,CLR,,0.00,WeatherDisplay:10.37,2013-01-25 17:15:00,
2013-01-25 12:20:00,73.2,55.0,30.24,NW,320,0.0,4.0,53,0.00,CLR,,0.00,WeatherDisplay:10.37,2013-01-25 17:20:00,
2013-01-25 12:25:00,72.7,53.5,30.23,NW,310,0.0,5.0,51,0.00,CLR,,0.00,WeatherDisplay:10.37,2013-01-25 17:25:00,
2013-01-25 12:30:00,72.3,54.2,30.23,NW,321,0.0,2.0,53,0.00,CLR,,0.00,WeatherDisplay:10.37,2013-01-25 17:30:00,
2013-01-25 12:35:00,72.1,54.5,30.23,NW,319,0.0,1.0,54,0.00,CLR,,0.00,WeatherDisplay:10.37,2013-01-25 17:35:00,
2013-01-25 12:40:00,72.2,54.6,30.22,NNE,20,0.0,2.0,54,0.00,CLR,,0.00,WeatherDisplay:10.37,2013-01-25 17:40:00,
2013-01-25 12:45:00,72.5,55.9,30.22,NE,36,0.0,1.0,56,0.00,CLR,,0.00,WeatherDisplay:10.37,2013-01-25 17:45:00,
2013-01-25 12:50:00,73.1,55.0,30.22,ENE,61,0.0,3.0,53,0.00,CLR,,0.00,WeatherDisplay:10.37,2013-01-25 17:50:00,
2013-01-25 12:55:00,73.0,54.9,30.21,NE,47,1.0,4.0,53,0.00,CLR,,0.00,WeatherDisplay:10.37,2013-01-25 17:55:00,
2013-01-25 13:00:00,72.8,53.6,30.21,NNW,344,1.0,4.0,51,0.00,CLR,,0.00,WeatherDisplay:10.37,2013-01-25 18:00:00,
2013-01-25 13:05:00,72.6,54.0,30.21,NW,326,0.0,1.0,52,0.00,CLR,,0.00,WeatherDisplay:10.37,2013-01-25 18:05:00,
2013-01-25 13:10:00,72.7,54.5,30.20,NW,323,0.0,1.0,53,0.00,CLR,,0.00,WeatherDisplay:10.37,2013-01-25 18:10:00,
2013-01-25 13:15:00,72.9,54.7,30.20,NW,323,0.0,1.0,53,0.00,CLR,,0.00,WeatherDisplay:10.37,2013-01-25 18:15:00,
2013-01-25 13:20:00,73.7,55.0,30.20,NW,323,0.0,1.0,52,0.00,CLR,,0.00,WeatherDisplay:10.37,2013-01-25 18:20:00,
2013-01-25 13:25:00,74.4,55.7,30.20,NNW,336,0.0,1.0,52,0.00,CLR,,0.00,WeatherDisplay:10.37,2013-01-25 18:25:00,
2013-01-25 13:30:00,75.0,55.6,30.20,NNE,17,0.0,2.0,51,0.00,CLR,,0.00,WeatherDisplay:10.37,2013-01-25 18:30:00,
2013-01-25 13:35:00,75.2,55.2,30.19,NNE,18,0.0,1.0,50,0.00,CLR,,0.00,WeatherDisplay:10.37,2013-01-25 18:35:00,
2013-01-25 13:40:00,74.7,54.3,30.19,WNW,286,1.0,4.0,49,0.00,CLR,,0.00,WeatherDisplay:10.37,2013-01-25 18:40:00,
2013-01-25 13:45:00,74.6,55.2,30.19,West,277,0.0,2.0,51,0.00,CLR,,0.00,WeatherDisplay:10.37,2013-01-25 18:45:00,
2013-01-25 13:50:00,75.2,54.8,30.19,SW,219,1.0,3.0,49,0.00,CLR,,0.00,WeatherDisplay:10.37,2013-01-25 18:50:00,
2013-01-25 13:55:00,75.8,55.3,30.18,South,174,0.0,1.0,49,0.00,CLR,,0.00,WeatherDisplay:10.37,2013-01-25 18:55:00,
2013-01-25 14:00:00,75.8,54.2,30.18,South,172,1.0,4.0,47,0.00,CLR,,0.00,WeatherDisplay:10.37,2013-01-25 19:00:00,
2013-01-25 14:05:00,75.9,55.4,30.18,South,172,0.0,2.0,49,0.00,CLR,,0.00,WeatherDisplay:10.37,2013-01-25 19:05:00,
2013-01-25 14:10:00,75.9,54.8,30.18,SSE,149,0.0,3.0,48,0.00,CLR,,0.00,WeatherDisplay:10.37,2013-01-25 19:10:00,
2013-01-25 14:15:00,76.1,55.0,30.18,East,95,1.0,2.0,48,0.00,CLR,,0.00,WeatherDisplay:10.37,2013-01-25 19:15:00,
2013-01-25 14:20:00,76.3,54.6,30.17,East,88,0.0,1.0,47,0.00,CLR,,0.00,WeatherDisplay:10.37,2013-01-25 19:20:00,
2013-01-25 14:25:00,76.2,54.5,30.17,East,88,0.0,2.0,47,0.00,CLR,,0.00,WeatherDisplay:10.37,2013-01-25 19:25:00,
2013-01-25 14:35:00,76.4,55.3,30.17,ENE,70,1.0,3.0,48,0.00,CLR,,0.00,WeatherDisplay:10.37,2013-01-25 19:35:00,
2013-01-25 14:40:00,76.7,54.3,30.16,ENE,58,0.0,3.0,46,0.00,CLR,,0.00,WeatherDisplay:10.37,2013-01-25 19:40:00,
2013-01-25 14:45:00,76.8,55.0,30.17,ENE,58,0.0,4.0,47,0.00,CLR,,0.00,WeatherDisplay:10.37,2013-01-25 19:45:00,
2013-01-25 14:50:00,76.2,54.5,30.16,NW,320,1.0,7.0,47,0.00,CLR,,0.00,WeatherDisplay:10.37,2013-01-25 19:50:00,
2013-01-25 14:55:00,76.0,54.3,30.16,West,281,0.0,6.0,47,0.00,CLR,,0.00,WeatherDisplay:10.37,2013-01-25 19:55:00,
2013-01-25 15:00:00,76.1,54.4,30.16,WSW,242,1.0,4.0,47,0.00,CLR,,0.00,WeatherDisplay:10.37,2013-01-25 20:00:00,
2013-01-25 15:05:00,76.1,53.8,30.16,WSW,238,0.0,3.0,46,0.00,CLR,,0.00,WeatherDisplay:10.37,2013-01-25 20:05:00,
2013-01-25 15:10:00,76.5,54.7,30.16,SW,232,1.0,5.0,47,0.00,CLR,,0.00,WeatherDisplay:10.37,2013-01-25 20:10:00,
2013-01-25 15:15:00,76.6,54.9,30.15,SW,217,1.0,3.0,47,0.00,CLR,,0.00,WeatherDisplay:10.37,2013-01-25 20:15:00,
2013-01-25 15:20:00,76.6,54.9,30.15,SSW,205,2.0,6.0,47,0.00,CLR,,0.00,WeatherDisplay:10.37,2013-01-25 20:20:00,
2013-01-25 15:25:00,76.7,54.4,30.15,SSW,193,1.0,3.0,46,0.00,CLR,,0.00,WeatherDisplay:10.37,2013-01-25 20:25:00,
2013-01-25 15:30:00,76.7,53.8,30.14,SSW,203,1.0,7.0,45,0.00,CLR,,0.00,WeatherDisplay:10.37,2013-01-25 20:30:00,
2013-01-25 15:35:00,76.6,54.3,30.14,SW,216,0.0,1.0,46,0.00,CLR,,0.00,WeatherDisplay:10.37,2013-01-25 20:35:00,
2013-01-25 15:45:00,76.4,54.7,30.14,SW,222,2.0,10.0,47,0.00,CLR,,0.00,WeatherDisplay:10.37,2013-01-25 20:45:00,
2013-01-25 15:50:00,75.7,54.1,30.14,SSW,212,3.0,10.0,47,0.00,CLR,,0.00,WeatherDisplay:10.37,2013-01-25 20:50:00,
2013-01-25 15:55:00,75.5,53.9,30.14,SSW,209,0.0,7.0,47,0.00,CLR,,0.00,WeatherDisplay:10.37,2013-01-25 20:55:00,
2013-01-25 16:00:00,75.3,54.3,30.14,SSW,211,1.0,4.0,48,0.00,CLR,,0.00,WeatherDisplay:10.37,2013-01-25 21:00:00,
2013-01-25 16:10:00,74.8,53.8,30.14,SW,215,1.0,8.0,48,0.00,CLR,,0.00,WeatherDisplay:10.37,2013-01-25 21:10:00,
2013-01-25 16:20:00,74.4,54.0,30.14,SSW,210,0.0,7.0,49,0.00,CLR,,0.00,WeatherDisplay:10.37,2013-01-25 21:20:00,
2013-01-25 16:25:00,74.1,53.7,30.14,SW,220,3.0,7.0,49,0.00,CLR,,0.00,WeatherDisplay:10.37,2013-01-25 21:25:00,
2013-01-25 16:30:00,73.9,53.6,30.14,SW,226,3.0,8.0,49,0.00,CLR,,0.00,WeatherDisplay:10.37,2013-01-25 21:30:00,
2013-01-25 16:35:00,73.7,53.3,30.14,SW,224,1.0,7.0,49,0.00,CLR,,0.00,WeatherDisplay:10.37,2013-01-25 21:35:00,
2013-01-25 16:40:00,73.5,54.3,30.14,SW,220,1.0,6.0,51,0.00,CLR,,0.00,WeatherDisplay:10.37,2013-01-25 21:40:00,
2013-01-25 16:45:00,73.3,54.1,30.15,SW,219,1.0,9.0,51,0.00,CLR,,0.00,WeatherDisplay:10.37,2013-01-25 21:45:00,
2013-01-25 16:50:00,73.1,53.3,30.15,SW,231,1.0,10.0,50,0.00,CLR,,0.00,WeatherDisplay:10.37,2013-01-25 21:50:00,
2013-01-25 16:55:00,72.9,53.7,30.15,SW,229,2.0,6.0,51,0.00,CLR,,0.00,WeatherDisplay:10.37,2013-01-25 21:55:00,
2013-01-25 17:00:00,72.6,53.4,30.14,SSW,207,0.0,5.0,51,0.00,CLR,,0.00,WeatherDisplay:10.37,2013-01-25 22:00:00,
2013-01-25 17:05:00,72.4,52.2,30.14,SSW,208,2.0,9.0,49,0.00,CLR,,0.00,WeatherDisplay:10.37,2013-01-25 22:05:00,
2013-01-25 17:10:00,72.2,52.0,30.14,SSW,210,2.0,6.0,49,0.00,CLR,,0.00,WeatherDisplay:10.37,2013-01-25 22:10:00,
2013-01-25 17:15:00,72.1,52.4,30.15,SW,220,0.0,3.0,50,0.00,CLR,,0.00,WeatherDisplay:10.37,2013-01-25 22:15:00,
2013-01-25 17:25:00,71.7,52.6,30.15,SW,227,0.0,1.0,51,0.00,CLR,,0.00,WeatherDisplay:10.37,2013-01-25 22:25:00,
2013-01-25 17:30:00,71.3,52.8,30.15,SW,227,0.0,0.0,52,0.00,CLR,,0.00,WeatherDisplay:10.37,2013-01-25 22:30:00,
2013-01-25 17:35:00,70.9,53.4,30.15,SW,227,0.0,0.0,54,0.00,CLR,,0.00,WeatherDisplay:10.37,2013-01-25 22:35:00,
2013-01-25 17:40:00,70.4,52.9,30.15,SW,227,0.0,0.0,54,0.00,CLR,,0.00,WeatherDisplay:10.37,2013-01-25 22:40:00,
2013-01-25 17:45:00,69.8,53.4,30.15,SW,227,0.0,0.0,56,0.00,CLR,,0.00,WeatherDisplay:10.37,2013-01-25 22:45:00,
2013-01-25 17:50:00,69.2,53.3,30.15,SW,227,0.0,0.0,57,0.00,CLR,,0.00,WeatherDisplay:10.37,2013-01-25 22:50:00,
2013-01-25 17:55:00,68.6,52.8,30.15,SW,227,0.0,0.0,57,0.00,CLR,,0.00,WeatherDisplay:10.37,2013-01-25 22:55:00,
2013-01-25 18:00:00,68.1,53.6,30.15,SW,227,0.0,0.0,60,0.00,CLR,,0.00,WeatherDisplay:10.37,2013-01-25 23:00:00,
2013-01-25 18:05:00,67.4,53.5,30.15,SW,227,0.0,0.0,61,0.00,CLR,,0.00,WeatherDisplay:10.37,2013-01-25 23:05:00,
2013-01-25 18:10:00,66.8,53.3,30.15,SW,227,0.0,0.0,62,0.00,CLR,,0.00,WeatherDisplay:10.37,2013-01-25 23:10:00,
2013-01-25 18:15:00,66.1,53.2,30.15,SW,227,0.0,0.0,63,0.00,CLR,,0.00,WeatherDisplay:10.37,2013-01-25 23:15:00,
2013-01-25 18:20:00,65.6,53.1,30.15,SW,227,0.0,0.0,64,0.00,CLR,,0.00,WeatherDisplay:10.37,2013-01-25 23:20:00,
2013-01-25 18:25:00,65.2,52.7,30.15,SW,227,0.0,0.0,64,0.00,CLR,,0.00,WeatherDisplay:10.37,2013-01-25 23:25:00,
2013-01-25 18:30:00,64.6,53.0,30.15,SW,227,0.0,0.0,66,0.00,CLR,,0.00,WeatherDisplay:10.37,2013-01-25 23:30:00,
2013-01-25 18:35:00,64.0,52.8,30.16,SW,227,0.0,0.0,67,0.00,CLR,,0.00,WeatherDisplay:10.37,2013-01-25 23:35:00,
2013-01-25 18:40:00,63.5,52.3,30.16,SW,227,0.0,0.0,67,0.00,CLR,,0.00,WeatherDisplay:10.37,2013-01-25 23:40:00,
2013-01-25 18:45:00,62.9,52.6,30.15,SW,227,0.0,0.0,69,0.00,CLR,,0.00,WeatherDisplay:10.37,2013-01-25 23:45:00,
2013-01-25 18:50:00,62.3,52.4,30.16,SW,227,0.0,0.0,70,0.00,CLR,,0.00,WeatherDisplay:10.37,2013-01-25 23:50:00,
2013-01-25 18:55:00,61.8,52.3,30.15,SW,227,0.0,0.0,71,0.00,CLR,,0.00,WeatherDisplay:10.37,2013-01-25 23:55:00,
2013-01-25 19:00:00,61.1,52.4,30.16,SW,227,0.0,0.0,73,0.00,CLR,,0.00,WeatherDisplay:10.37,2013-01-26 00:00:00,
2013-01-25 19:05:00,60.7,52.3,30.16,SW,227,0.0,0.0,74,0.00,CLR,,0.00,WeatherDisplay:10.37,2013-01-26 00:05:00,
2013-01-25 19:10:00,60.3,52.0,30.15,SW,227,0.0,0.0,74,0.00,CLR,,0.00,WeatherDisplay:10.37,2013-01-26 00:10:00,
2013-01-25 19:15:00,60.0,52.1,30.16,SW,227,0.0,0.0,75,0.00,CLR,,0.00,WeatherDisplay:10.37,2013-01-26 00:15:00,
2013-01-25 19:20:00,59.7,52.1,30.16,SW,227,0.0,0.0,76,0.00,CLR,,0.00,WeatherDisplay:10.37,2013-01-26 00:20:00,
2013-01-25 19:25:00,59.4,52.2,30.16,SW,227,0.0,0.0,77,0.00,CLR,,0.00,WeatherDisplay:10.37,2013-01-26 00:25:00,
2013-01-25 19:30:00,59.1,52.3,30.16,SW,227,0.0,0.0,78,0.00,CLR,,0.00,WeatherDisplay:10.37,2013-01-26 00:30:00,
2013-01-25 19:35:00,59.0,52.1,30.17,SW,227,0.0,0.0,78,0.00,CLR,,0.00,WeatherDisplay:10.37,2013-01-26 00:35:00,
2013-01-25 19:40:00,58.7,52.2,30.17,SW,227,0.0,0.0,79,0.00,CLR,,0.00,WeatherDisplay:10.37,2013-01-26 00:40:00,
2013-01-25 19:45:00,58.4,52.0,30.17,SW,227,0.0,0.0,79,0.00,CLR,,0.00,WeatherDisplay:10.37,2013-01-26 00:45:00,
2013-01-25 19:50:00,58.1,51.6,30.17,SW,227,0.0,0.0,79,0.00,CLR,,0.00,WeatherDisplay:10.37,2013-01-26 00:50:00,
2013-01-25 19:55:00,57.8,51.7,30.17,SW,227,0.0,0.0,80,0.00,CLR,,0.00,WeatherDisplay:10.37,2013-01-26 00:55:00,
2013-01-25 20:00:00,57.4,51.3,30.17,SW,227,0.0,0.0,80,0.00,CLR,,0.00,WeatherDisplay:10.37,2013-01-26 01:00:00,
2013-01-25 20:05:00,57.1,51.4,30.17,SW,227,0.0,0.0,81,0.00,CLR,,0.00,WeatherDisplay:10.37,2013-01-26 01:05:00,
2013-01-25 20:10:00,56.8,51.4,30.17,SW,227,0.0,0.0,82,0.00,CLR,,0.00,WeatherDisplay:10.37,2013-01-26 01:10:00,
2013-01-25 20:15:00,56.6,51.5,30.16,SW,227,0.0,0.0,83,0.00,CLR,,0.00,WeatherDisplay:10.37,2013-01-26 01:15:00,
2013-01-25 20:20:00,56.4,51.3,30.16,SW,227,0.0,0.0,83,0.00,CLR,,0.00,WeatherDisplay:10.37,2013-01-26 01:20:00,
2013-01-25 20:25:00,56.3,51.5,30.16,SW,227,0.0,0.0,84,0.00,CLR,,0.00,WeatherDisplay:10.37,2013-01-26 01:25:00,
2013-01-25 20:30:00,56.1,51.3,30.16,SW,227,0.0,0.0,84,0.00,CLR,,0.00,WeatherDisplay:10.37,2013-01-26 01:30:00,
2013-01-25 20:35:00,56.1,51.9,30.17,SW,227,0.0,2.0,86,0.00,CLR,,0.00,WeatherDisplay:10.37,2013-01-26 01:35:00,
2013-01-25 20:40:00,56.1,51.7,30.17,WSW,247,0.0,3.0,85,0.00,CLR,,0.00,WeatherDisplay:10.37,2013-01-26 01:40:00,
2013-01-25 20:45:00,56.2,51.7,30.17,WNW,286,0.0,0.0,85,0.00,CLR,,0.00,WeatherDisplay:10.37,2013-01-26 01:45:00,
2013-01-25 20:50:00,56.5,51.4,30.17,WNW,286,0.0,1.0,83,0.00,CLR,,0.00,WeatherDisplay:10.37,2013-01-26 01:50:00,
2013-01-25 20:55:00,56.7,51.3,30.17,WNW,286,0.0,0.0,82,0.00,CLR,,0.00,WeatherDisplay:10.37,2013-01-26 01:55:00,
2013-01-25 21:00:00,56.6,51.2,30.17,WNW,286,0.0,0.0,82,0.00,CLR,,0.00,WeatherDisplay:10.37,2013-01-26 02:00:00,
2013-01-25 21:05:00,56.5,51.1,30.17,WNW,286,0.0,0.0,82,0.00,CLR,,0.00,WeatherDisplay:10.37,2013-01-26 02:05:00,
2013-01-25 21:10:00,56.3,50.9,30.17,WNW,286,0.0,0.0,82,0.00,CLR,,0.00,WeatherDisplay:10.37,2013-01-26 02:10:00,
2013-01-25 21:15:00,56.1,50.7,30.17,WNW,286,0.0,0.0,82,0.00,CLR,,0.00,WeatherDisplay:10.37,2013-01-26 02:15:00,
2013-01-25 21:20:00,55.8,50.4,30.17,WNW,286,0.0,0.0,82,0.00,CLR,,0.00,WeatherDisplay:10.37,2013-01-26 02:20:00,
2013-01-25 21:25:00,55.5,50.1,30.17,WNW,286,0.0,0.0,82,0.00,CLR,,0.00,WeatherDisplay:10.37,2013-01-26 02:25:00,
2013-01-25 21:30:00,55.3,49.9,30.17,WNW,286,0.0,0.0,82,0.00,CLR,,0.00,WeatherDisplay:10.37,2013-01-26 02:30:00,
2013-01-25 21:35:00,55.0,49.9,30.17,WNW,286,0.0,0.0,83,0.00,CLR,,0.00,WeatherDisplay:10.37,2013-01-26 02:35:00,
2013-01-25 21:40:00,54.8,49.7,30.17,WNW,286,0.0,0.0,83,0.00,CLR,,0.00,WeatherDisplay:10.37,2013-01-26 02:40:00,
2013-01-25 21:45:00,54.5,49.8,30.17,WNW,286,0.0,0.0,84,0.00,CLR,,0.00,WeatherDisplay:10.37,2013-01-26 02:45:00,
2013-01-25 21:50:00,54.3,49.6,30.17,WNW,286,0.0,0.0,84,0.00,CLR,,0.00,WeatherDisplay:10.37,2013-01-26 02:50:00,
2013-01-25 21:55:00,54.1,49.7,30.17,WNW,286,0.0,0.0,85,0.00,CLR,,0.00,WeatherDisplay:10.37,2013-01-26 02:55:00,
2013-01-25 22:00:00,53.9,49.8,30.17,WNW,286,0.0,0.0,86,0.00,CLR,,0.00,WeatherDisplay:10.37,2013-01-26 03:00:00,
2013-01-25 22:05:00,53.7,49.9,30.18,WNW,286,0.0,0.0,87,0.00,CLR,,0.00,WeatherDisplay:10.37,2013-01-26 03:05:00,
2013-01-25 22:10:00,53.4,49.7,30.18,WNW,286,0.0,0.0,87,0.00,CLR,,0.00,WeatherDisplay:10.37,2013-01-26 03:10:00,
2013-01-25 22:15:00,53.1,49.3,30.18,WNW,286,0.0,0.0,87,0.00,CLR,,0.00,WeatherDisplay:10.37,2013-01-26 03:15:00,
2013-01-25 22:20:00,53.0,49.5,30.18,WNW,286,0.0,0.0,88,0.00,CLR,,0.00,WeatherDisplay:10.37,2013-01-26 03:20:00,
2013-01-25 22:25:00,53.1,49.9,30.18,WNW,286,0.0,0.0,89,0.00,CLR,,0.00,WeatherDisplay:10.37,2013-01-26 03:25:00,
2013-01-25 22:30:00,53.0,49.5,30.18,WNW,286,0.0,0.0,88,0.00,CLR,,0.00,WeatherDisplay:10.37,2013-01-26 03:30:00,
2013-01-25 22:35:00,52.9,49.5,30.18,WNW,286,0.0,0.0,88,0.00,CLR,,0.00,WeatherDisplay:10.37,2013-01-26 03:35:00,
2013-01-25 22:40:00,52.9,49.4,30.18,WNW,286,0.0,1.0,88,0.00,CLR,,0.00,WeatherDisplay:10.37,2013-01-26 03:40:00,
2013-01-25 22:45:00,53.0,49.5,30.19,WNW,286,0.0,0.0,88,0.00,CLR,,0.00,WeatherDisplay:10.37,2013-01-26 03:45:00,
2013-01-25 22:50:00,52.9,49.1,30.19,WNW,286,0.0,0.0,87,0.00,CLR,,0.00,WeatherDisplay:10.37,2013-01-26 03:50:00,
2013-01-25 22:55:00,52.8,49.0,30.19,WNW,286,0.0,0.0,87,0.00,CLR,,0.00,WeatherDisplay:10.37,2013-01-26 03:55:00,
2013-01-25 23:00:00,52.7,48.9,30.19,WNW,286,0.0,0.0,87,0.00,CLR,,0.00,WeatherDisplay:10.37,2013-01-26 04:00:00,
2013-01-25 23:05:00,52.6,49.1,30.20,WNW,286,0.0,0.0,88,0.00,CLR,,0.00,WeatherDisplay:10.37,2013-01-26 04:05:00,
2013-01-25 23:10:00,52.6,49.1,30.20,WNW,286,0.0,0.0,88,0.00,CLR,,0.00,WeatherDisplay:10.37,2013-01-26 04:10:00,
2013-01-25 23:15:00,52.4,48.9,30.20,WNW,286,0.0,0.0,88,0.00,CLR,,0.00,WeatherDisplay:10.37,2013-01-26 04:15:00,
2013-01-25 23:20:00,52.3,48.8,30.20,WNW,286,0.0,0.0,88,0.00,CLR,,0.00,WeatherDisplay:10.37,2013-01-26 04:20:00,
2013-01-25 23:25:00,51.9,48.5,30.20,WNW,286,0.0,0.0,88,0.00,CLR,,0.00,WeatherDisplay:10.37,2013-01-26 04:25:00,
2013-01-25 23:30:00,51.7,48.3,30.20,WNW,286,0.0,0.0,88,0.00,CLR,,0.00,WeatherDisplay:10.37,2013-01-26 04:30:00,
2013-01-25 23:35:00,51.4,48.0,30.20,WNW,286,0.0,0.0,88,0.00,CLR,,0.00,WeatherDisplay:10.37,2013-01-26 04:35:00,
2013-01-25 23:40:00,51.1,47.7,30.20,WNW,286,0.0,0.0,88,0.00,CLR,,0.00,WeatherDisplay:10.37,2013-01-26 04:40:00,
2013-01-25 23:45:00,50.8,47.4,30.20,WNW,286,0.0,0.0,88,0.00,CLR,,0.00,WeatherDisplay:10.37,2013-01-26 04:45:00,
2013-01-25 23:50:00,50.5,47.1,30.20,WNW,286,0.0,0.0,88,0.00,CLR,,0.00,WeatherDisplay:10.37,2013-01-26 04:50:00,
2013-01-25 23:55:00,50.3,47.2,30.20,WNW,286,0.0,0.0,89,0.00,CLR,,0.00,WeatherDisplay:10.37,2013-01-26 04:55:00,